Time;durP1;ratioP1;P1;durP2;ratioP2;P2;SDS_P1;SDS_P2;PMS_P1;PMS_P2;Temp;Humidity;BMP_temperature;BMP_pressure;BME280_temperature;BME280_humidity;BME280_pressure;Samples;Min_cycle;Max_cycle;Signal;HPM_P1;HPM_P2
2024/04/23 00:00:01;;;;;;;3.53;3.22;;;;;;;3.55;86.51;101593.00;5114254;27;20084;-85
2024/04/23 00:02:29;;;;;;;4.25;3.15;;;;;;;3.58;86.05;101587.91;5147382;27;20500;-88
2024/04/23 00:04:56;;;;;;;3.78;2.85;;;;;;;3.51;87.01;101588.56;5152739;27;20393;-87
2024/04/23 00:07:25;;;;;;;5.82;2.78;;;;;;;3.47;87.28;101581.50;5113361;27;20010;-87
2024/04/23 00:09:50;;;;;;;5.20;3.20;;;;;;;3.45;87.42;101588.31;5141194;27;20021;-87
2024/04/23 00:12:19;;;;;;;2.60;2.40;;;;;;;3.45;88.30;101581.44;5114408;27;20019;-86
2024/04/23 00:14:45;;;;;;;5.28;3.75;;;;;;;3.46;88.91;101578.03;5136347;27;20017;-86
2024/04/23 00:17:20;;;;;;;3.00;2.60;;;;;;;3.46;88.52;101574.56;5093980;27;20013;-87
2024/04/23 00:19:46;;;;;;;6.57;3.70;;;;;;;3.48;89.50;101576.38;5121325;27;20241;-87
2024/04/23 00:22:14;;;;;;;4.85;3.38;;;;;;;3.53;88.95;101568.75;5118382;27;20367;-88
2024/04/23 00:24:40;;;;;;;3.78;3.10;;;;;;;3.46;89.65;101566.81;5142747;27;20435;-86
2024/04/23 00:27:11;;;;;;;4.72;3.20;;;;;;;3.39;91.21;101557.94;5089756;27;20565;-87
2024/04/23 00:29:37;;;;;;;3.22;2.90;;;;;;;3.42;91.92;101565.81;5143780;27;20009;-86
2024/04/23 00:32:05;;;;;;;4.45;2.80;;;;;;;3.34;93.16;101561.19;5142107;27;20024;-85
2024/04/23 00:34:31;;;;;;;4.95;3.38;;;;;;;3.35;92.53;101556.09;5142485;27;20032;-86
2024/04/23 00:37:01;;;;;;;4.65;3.28;;;;;;;3.42;92.33;101558.03;5144760;27;20013;-87
2024/04/23 00:39:27;;;;;;;4.85;3.15;;;;;;;3.37;92.48;101549.22;5091833;27;20045;-86
2024/04/23 00:41:58;;;;;;;7.47;3.85;;;;;;;3.36;92.51;101557.81;5113934;27;20020;-87
2024/04/23 00:44:33;;;;;;;6.20;3.15;;;;;;;3.34;92.88;101551.72;5116042;27;20024;-87
2024/04/23 00:47:02;;;;;;;4.20;2.95;;;;;;;3.38;92.43;101547.53;5135504;27;20054;-85
2024/04/23 00:49:27;;;;;;;4.47;2.95;;;;;;;3.31;93.10;101549.91;5118587;27;20105;-85
2024/04/23 00:51:57;;;;;;;3.38;3.08;;;;;;;3.32;93.21;101553.38;5075878;27;20021;-86
2024/04/23 00:54:26;;;;;;;4.70;3.65;;;;;;;3.31;94.05;101542.16;5144576;27;20013;-86
2024/04/23 00:56:58;;;;;;;3.67;3.17;;;;;;;3.30;93.81;101544.69;5139421;27;20508;-88
2024/04/23 00:59:24;;;;;;;5.05;2.55;;;;;;;3.32;95.24;101548.19;5165951;27;20024;-85
2024/04/23 01:01:55;;;;;;;3.33;2.75;;;;;;;3.35;94.84;101544.81;5141612;27;20420;-85
2024/04/23 01:04:21;;;;;;;2.50;2.30;;;;;;;3.28;94.62;101541.16;5140718;27;20014;-86
2024/04/23 01:06:52;;;;;;;4.13;2.88;;;;;;;3.27;94.94;101536.78;5134044;27;20010;-85
2024/04/23 01:09:19;;;;;;;3.10;2.83;;;;;;;3.26;95.43;101535.94;5088588;27;20014;-85
2024/04/23 01:11:47;;;;;;;5.63;2.85;;;;;;;3.25;95.63;101539.34;5083562;27;20005;-85
2024/04/23 01:14:13;;;;;;;3.65;3.22;;;;;;;3.25;96.16;101541.06;5108249;27;20026;-88
2024/04/23 01:16:46;;;;;;;4.68;2.85;;;;;;;3.20;96.73;101538.28;5104703;27;20021;-86
2024/04/23 01:19:31;;;;;;;3.17;2.45;;;;;;;3.17;96.74;101545.06;5085225;27;20089;-87
2024/04/23 01:22:11;;;;;;;3.50;2.67;;;;;;;3.12;96.58;101542.31;5111318;27;20032;-87
2024/04/23 01:24:59;;;;;;;3.83;3.15;;;;;;;3.11;98.14;101520.72;5109410;27;20024;-85
2024/04/23 01:27:30;;;;;;;4.30;2.75;;;;;;;3.16;97.97;101530.38;5109758;27;20021;-88
2024/04/23 01:29:56;;;;;;;4.35;3.08;;;;;;;3.09;98.77;101521.50;5112954;27;21346;-87
2024/04/23 01:32:28;;;;;;;4.28;2.88;;;;;;;3.11;98.58;101525.03;5144914;27;20431;-88
2024/04/23 01:34:55;;;;;;;4.57;3.33;;;;;;;3.07;98.84;101520.56;5080382;27;20024;-86
2024/04/23 01:37:27;;;;;;;3.80;2.92;;;;;;;3.03;100.00;101526.47;5107324;27;20419;-86
2024/04/23 01:39:54;;;;;;;4.93;3.67;;;;;;;3.05;100.00;101520.53;5081091;27;20032;-87
2024/04/23 01:42:23;;;;;;;4.35;3.30;;;;;;;3.01;100.00;101515.19;5082826;28;20026;-84
2024/04/23 01:44:50;;;;;;;3.45;2.97;;;;;;;2.99;100.00;101517.72;5088130;27;20024;-88
2024/04/23 01:47:18;;;;;;;7.65;3.30;;;;;;;2.95;100.00;101518.44;5082604;28;20022;-87
2024/04/23 01:49:44;;;;;;;2.78;2.58;;;;;;;2.95;100.00;101514.13;5058528;27;20012;-87
2024/04/23 01:52:13;;;;;;;3.75;3.42;;;;;;;2.98;100.00;101524.56;5082249;27;20010;-85
2024/04/23 01:54:39;;;;;;;4.07;3.75;;;;;;;2.94;100.00;101516.66;5090919;27;20025;-86
2024/04/23 01:57:09;;;;;;;5.13;3.95;;;;;;;2.91;100.00;101513.97;5085280;27;20002;-87
2024/04/23 01:59:44;;;;;;;3.92;3.53;;;;;;;2.83;100.00;101505.03;5140114;27;20017;-87
2024/04/23 02:02:13;;;;;;;6.78;4.22;;;;;;;2.63;100.00;101506.09;5087379;28;20017;-87
2024/04/23 02:04:39;;;;;;;5.97;4.45;;;;;;;2.54;100.00;101502.25;5107302;27;20629;-87
2024/04/23 02:07:07;;;;;;;3.95;3.30;;;;;;;2.52;100.00;101502.22;5090999;27;20012;-87
2024/04/23 02:09:33;;;;;;;5.30;3.75;;;;;;;2.52;100.00;101499.63;5143862;27;20029;-86
2024/04/23 02:12:05;;;;;;;5.63;4.00;;;;;;;2.48;100.00;101501.22;5115979;27;20023;-84
2024/04/23 02:14:31;;;;;;;7.72;4.38;;;;;;;2.46;100.00;101501.97;5142918;27;20017;-87
2024/04/23 02:17:00;;;;;;;4.82;4.22;;;;;;;2.34;100.00;101497.22;5139942;27;20032;-86
2024/04/23 02:19:26;;;;;;;6.28;4.28;;;;;;;2.39;100.00;101494.81;5141121;27;20031;-85
2024/04/23 02:21:54;;;;;;;4.60;4.10;;;;;;;2.41;100.00;101495.75;5171146;27;20365;-87
2024/04/23 02:24:20;;;;;;;6.57;4.55;;;;;;;2.42;100.00;101498.38;5140374;27;20009;-85
2024/04/23 02:26:48;;;;;;;6.47;4.97;;;;;;;2.31;100.00;101490.22;5138507;27;20087;-85
2024/04/23 02:29:14;;;;;;;6.25;4.90;;;;;;;2.21;100.00;101488.13;5116755;27;20028;-88
2024/04/23 02:31:42;;;;;;;6.90;5.03;;;;;;;2.15;100.00;101486.19;5139922;27;20020;-85
2024/04/23 02:34:08;;;;;;;5.32;4.18;;;;;;;2.09;100.00;101482.50;5120107;27;20025;-87
2024/04/23 02:36:37;;;;;;;6.45;4.70;;;;;;;2.12;100.00;101483.47;5139164;27;20389;-88
2024/04/23 02:39:03;;;;;;;10.15;6.10;;;;;;;2.09;100.00;101482.50;5146726;27;20024;-87
2024/04/23 02:41:36;;;;;;;6.57;5.25;;;;;;;2.01;100.00;101479.59;5142542;27;20028;-87
2024/04/23 02:44:03;;;;;;;6.82;5.07;;;;;;;2.02;100.00;101485.63;5120908;27;20020;-84
2024/04/23 02:46:31;;;;;;;9.32;5.00;;;;;;;2.00;100.00;101479.53;5139777;27;20020;-87
2024/04/23 02:49:00;;;;;;;8.32;5.35;;;;;;;1.96;100.00;101481.13;5145499;27;20465;-86
2024/04/23 02:51:25;;;;;;;7.63;5.10;;;;;;;1.92;100.00;101476.66;5141335;27;20009;-87
2024/04/23 02:53:56;;;;;;;5.38;4.88;;;;;;;1.89;100.00;101476.53;5139092;27;20092;-86
2024/04/23 02:56:22;;;;;;;9.13;4.82;;;;;;;1.87;100.00;101473.88;5113407;27;20049;-85
2024/04/23 02:58:50;;;;;;;8.82;5.10;;;;;;;1.80;100.00;101474.47;5115395;27;20029;-86
2024/04/23 03:01:16;;;;;;;8.30;5.70;;;;;;;1.82;100.00;101470.22;5142247;27;20013;-87
2024/04/23 03:03:44;;;;;;;10.35;6.30;;;;;;;1.83;100.00;101463.38;5149153;27;20032;-86
2024/04/23 03:06:10;;;;;;;7.93;5.32;;;;;;;1.88;100.00;101472.16;5144676;27;20022;-84
2024/04/23 03:08:38;;;;;;;9.65;5.07;;;;;;;1.88;100.00;101465.31;5121737;27;20487;-85
2024/04/23 03:11:04;;;;;;;9.10;4.80;;;;;;;1.89;100.00;101458.44;5147532;27;20024;-84
2024/04/23 03:13:32;;;;;;;6.53;5.35;;;;;;;1.88;100.00;101464.41;5143499;27;20040;-87
2024/04/23 03:15:58;;;;;;;6.90;6.20;;;;;;;1.88;100.00;101464.41;5143390;27;20025;-84
2024/04/23 03:18:26;;;;;;;8.45;6.75;;;;;;;1.87;100.00;101470.44;5170084;27;20484;-86
2024/04/23 03:20:52;;;;;;;9.50;6.18;;;;;;;1.89;100.00;101469.66;5141075;27;20013;-86
2024/04/23 03:23:20;;;;;;;7.30;5.70;;;;;;;1.85;100.00;101474.63;5122153;27;20029;-86
2024/04/23 03:25:48;;;;;;;8.10;5.68;;;;;;;1.69;100.00;101479.19;5139328;27;20463;-89
2024/04/23 03:28:16;;;;;;;7.53;5.65;;;;;;;1.79;100.00;101483.03;5115267;27;20025;-87
2024/04/23 03:30:42;;;;;;;11.57;5.75;;;;;;;1.83;100.00;101484.03;5145576;27;20027;-87
2024/04/23 03:33:10;;;;;;;8.15;5.28;;;;;;;1.78;100.00;101482.13;5141247;27;20018;-85
2024/04/23 03:35:35;;;;;;;8.27;5.82;;;;;;;1.77;100.00;101482.06;5142103;27;20453;-87
2024/04/23 03:38:05;;;;;;;8.05;5.63;;;;;;;1.77;100.00;101475.22;5168684;27;20072;-87
2024/04/23 03:40:33;;;;;;;10.43;5.65;;;;;;;1.68;100.00;101473.97;5144150;27;20013;-86
2024/04/23 03:43:02;;;;;;;6.68;5.00;;;;;;;1.65;100.00;101477.31;5168996;27;20024;-86
2024/04/23 03:45:30;;;;;;;8.30;5.80;;;;;;;1.64;100.00;101470.38;5117524;27;20010;-86
2024/04/23 03:50:45;;;;;;;7.75;6.03;;;;;;;1.62;100.00;101467.72;5122007;27;20009;-86
2024/04/23 03:53:10;;;;;;;7.38;5.70;;;;;;;1.61;100.00;101476.28;5112585;27;20013;-86
2024/04/23 03:55:39;;;;;;;8.05;5.10;;;;;;;1.55;100.00;101470.91;5145183;27;20004;-87
2024/04/23 03:58:04;;;;;;;8.38;5.70;;;;;;;1.56;100.00;101477.78;5138745;27;20009;-88
2024/04/23 04:00:33;;;;;;;8.32;5.07;;;;;;;1.54;100.00;101474.28;5141231;27;20043;-86
2024/04/23 04:08:30;;;;;;;7.20;5.10;;;;;;;1.56;100.00;101458.88;5161173;27;20028;-88
2024/04/23 04:10:55;;;;;;;10.02;5.95;;;;;;;1.55;100.00;101457.09;5118514;27;20017;-87
2024/04/23 04:13:24;;;;;;;9.73;6.30;;;;;;;1.62;100.00;101459.13;5143377;27;20017;-87
2024/04/23 04:15:50;;;;;;;6.82;5.00;;;;;;;1.71;100.00;101461.16;5123952;27;20010;-88
2024/04/23 04:18:19;;;;;;;7.22;6.25;;;;;;;1.73;100.00;101455.25;5094126;27;20017;-86
2024/04/23 04:20:48;;;;;;;12.77;7.55;;;;;;;1.75;100.00;101458.78;5110944;27;20360;-88
2024/04/23 04:23:13;;;;;;;11.77;7.93;;;;;;;1.74;100.00;101451.84;5119615;27;20013;-87
2024/04/23 04:25:42;;;;;;;12.35;6.05;;;;;;;1.80;100.00;101451.25;5148203;27;20424;-85
2024/04/23 04:28:07;;;;;;;10.18;7.85;;;;;;;1.82;100.00;101447.00;5142104;27;20031;-85
2024/04/23 04:30:35;;;;;;;7.55;6.20;;;;;;;1.85;100.00;101454.84;5146614;27;20469;-87
2024/04/23 04:33:01;;;;;;;17.17;7.38;;;;;;;1.87;100.00;101457.53;5099622;27;20719;-88
2024/04/23 04:35:33;;;;;;;8.18;6.68;;;;;;;1.91;100.00;101455.09;5124575;27;20034;-87
2024/04/23 04:38:01;;;;;;;9.65;6.18;;;;;;;2.01;100.00;101445.13;5114864;27;20056;-87
2024/04/23 04:40:27;;;;;;;7.30;5.88;;;;;;;2.04;100.00;101443.56;5143055;27;20025;-87
2024/04/23 04:42:56;;;;;;;5.68;5.10;;;;;;;2.03;100.00;101444.38;5140389;27;20010;-89
2024/04/23 04:45:22;;;;;;;8.05;6.13;;;;;;;2.03;100.00;101446.94;5152309;27;20005;-87
2024/04/23 04:47:50;;;;;;;9.48;6.40;;;;;;;2.05;100.00;101458.22;5120622;27;20239;-87
2024/04/23 04:50:17;;;;;;;8.95;6.05;;;;;;;2.12;100.00;101454.19;5170364;27;20023;-86
2024/04/23 04:52:47;;;;;;;8.07;5.82;;;;;;;2.22;100.00;101458.00;5135377;27;20024;-85
2024/04/23 04:55:13;;;;;;;11.38;6.72;;;;;;;2.23;100.00;101457.16;5134843;27;20027;-87
2024/04/23 04:57:41;;;;;;;7.95;6.05;;;;;;;2.26;100.00;101463.34;5170592;27;20017;-85
2024/04/23 05:00:07;;;;;;;9.98;6.10;;;;;;;2.32;100.00;101460.09;5140161;27;20009;-87
2024/04/23 05:02:37;;;;;;;10.07;6.47;;;;;;;2.38;100.00;101467.22;5147485;27;20013;-85
2024/04/23 05:05:04;;;;;;;8.52;5.68;;;;;;;2.43;100.00;101463.09;5144361;27;20024;-89
2024/04/23 05:07:34;;;;;;;9.57;6.47;;;;;;;2.51;100.00;101459.09;5143323;27;20020;-86
2024/04/23 05:10:00;;;;;;;7.88;5.88;;;;;;;2.51;100.00;101451.34;5109112;27;20073;-86
2024/04/23 05:12:29;;;;;;;10.88;6.90;;;;;;;2.52;100.00;101455.69;5170013;27;20499;-87
2024/04/23 05:14:54;;;;;;;11.45;7.05;;;;;;;2.52;100.00;101458.28;5139599;27;20354;-86
2024/04/23 05:17:23;;;;;;;10.13;6.65;;;;;;;2.58;100.00;101461.09;5151932;27;20027;-87
2024/04/23 05:19:48;;;;;;;9.45;5.93;;;;;;;2.65;100.00;101459.59;5113038;27;20071;-86
2024/04/23 05:22:17;;;;;;;13.50;7.53;;;;;;;2.68;100.00;101462.28;5147139;27;20433;-86
2024/04/23 05:24:43;;;;;;;8.07;6.20;;;;;;;2.76;100.00;101466.03;5140911;27;20035;-85
2024/04/23 05:27:11;;;;;;;10.07;6.72;;;;;;;2.82;100.00;101465.38;5119406;27;20017;-87
2024/04/23 05:29:40;;;;;;;13.27;7.40;;;;;;;2.86;100.00;101469.84;5115516;27;20567;-88
2024/04/23 05:34:53;;;;;;;10.43;7.00;;;;;;;2.98;100.00;101462.50;5090652;27;20017;-87
2024/04/23 05:37:22;;;;;;;11.68;7.55;;;;;;;3.07;100.00;101468.84;5103913;27;20017;-86
2024/04/23 05:39:50;;;;;;;14.13;7.45;;;;;;;3.07;100.00;101472.28;5130412;27;20052;-86
2024/04/23 05:42:18;;;;;;;9.70;6.85;;;;;;;3.13;100.00;101463.88;5087276;27;20009;-86
2024/04/23 05:44:46;;;;;;;16.33;7.05;;;;;;;3.23;100.00;101463.34;5116397;27;20126;-85
2024/04/23 05:47:15;;;;;;;15.00;8.32;;;;;;;3.34;100.00;101468.00;5136610;27;20713;-88
2024/04/23 05:50:40;;;;;;;15.48;9.95;;;;;;;3.38;100.00;101468.19;5164749;27;20017;-86
2024/04/23 05:54:04;;;;;;;9.20;7.07;;;;;;;3.48;100.00;101465.06;5142068;27;20061;-86
2024/04/23 05:56:41;;;;;;;8.93;6.60;;;;;;;3.48;100.00;101459.00;5139226;27;20013;-85
2024/04/23 05:59:07;;;;;;;9.70;7.13;;;;;;;3.59;100.00;101467.13;5115668;27;20074;-89
2024/04/23 06:01:35;;;;;;;10.20;6.70;;;;;;;3.53;100.00;101462.63;5143848;27;20401;-87
2024/04/23 06:04:01;;;;;;;11.05;7.25;;;;;;;3.44;100.00;101468.38;5112383;27;20013;-87
2024/04/23 06:06:29;;;;;;;10.52;6.30;;;;;;;3.57;100.00;101467.09;5120947;27;20010;-87
2024/04/23 06:08:55;;;;;;;9.68;6.75;;;;;;;3.57;100.00;101469.69;5114681;27;20024;-85
2024/04/23 06:11:23;;;;;;;12.73;5.68;;;;;;;3.63;100.00;101474.16;5090701;27;20121;-86
2024/04/23 06:13:49;;;;;;;6.40;5.10;;;;;;;3.66;100.00;101469.09;5086828;27;20021;-85
2024/04/23 06:16:17;;;;;;;8.07;5.07;;;;;;;3.69;100.00;101465.72;5083253;28;20086;-87
2024/04/23 06:18:44;;;;;;;10.15;5.30;;;;;;;3.91;99.15;101468.16;5082378;28;20017;-87
2024/04/23 06:21:13;;;;;;;7.53;4.38;;;;;;;4.09;97.77;101469.56;5083350;28;20018;-88
2024/04/23 06:23:39;;;;;;;8.07;5.32;;;;;;;4.21;96.01;101463.88;5136999;27;20105;-88
2024/04/23 06:26:08;;;;;;;8.57;5.00;;;;;;;4.25;94.08;101469.22;5115686;27;20384;-89
2024/04/23 06:28:35;;;;;;;13.50;4.97;;;;;;;4.25;93.37;101457.94;5086726;27;20016;-87
2024/04/23 06:31:05;;;;;;;7.45;4.32;;;;;;;4.33;93.99;101453.88;5117744;27;20419;-86
2024/04/23 06:33:31;;;;;;;7.28;4.43;;;;;;;4.44;91.58;101454.19;5084698;27;20014;-88
2024/04/23 06:36:00;;;;;;;9.13;4.22;;;;;;;4.63;89.95;101450.41;5086556;27;20029;-88
2024/04/23 06:38:25;;;;;;;7.20;4.15;;;;;;;4.66;88.20;101449.63;5088254;27;20017;-87
2024/04/23 06:40:54;;;;;;;5.47;4.15;;;;;;;4.68;88.58;101450.53;5096201;27;20550;-87
2024/04/23 06:43:20;;;;;;;6.50;4.75;;;;;;;4.87;87.90;101445.00;5147050;27;20501;-88
2024/04/23 06:45:49;;;;;;;8.65;4.05;;;;;;;4.90;86.08;101450.31;5117240;27;20024;-86
2024/04/23 06:48:15;;;;;;;4.63;3.90;;;;;;;4.90;84.38;101452.00;5117023;27;20098;-87
2024/04/23 06:50:44;;;;;;;8.13;4.28;;;;;;;5.03;84.68;101442.84;5142904;27;20026;-86
2024/04/23 06:53:10;;;;;;;7.70;3.80;;;;;;;5.19;84.30;101444.09;5111905;27;20114;-86
2024/04/23 06:55:39;;;;;;;8.32;4.38;;;;;;;5.43;82.02;101442.13;5088089;27;20018;-85
2024/04/23 06:58:05;;;;;;;5.20;3.97;;;;;;;5.61;79.71;101448.63;5087129;27;20010;-87
2024/04/23 07:00:33;;;;;;;8.25;5.60;;;;;;;6.02;78.14;101448.75;5081640;27;20009;-85
2024/04/23 07:03:07;;;;;;;8.25;5.32;;;;;;;8.03;71.52;101442.03;5141707;27;20454;-85
2024/04/23 07:05:38;;;;;;;5.72;3.58;;;;;;;11.83;54.75;101424.38;5100068;27;20017;-87
2024/04/23 07:08:07;;;;;;;14.20;6.40;;;;;;;13.20;51.34;101422.91;5089124;27;20014;-87
2024/04/23 07:10:35;;;;;;;11.15;5.57;;;;;;;15.33;46.89;101404.63;5060335;28;20025;-85
2024/04/23 07:13:05;;;;;;;10.20;5.78;;;;;;;16.25;43.72;101401.19;5114438;28;20022;-88
2024/04/23 07:15:34;;;;;;;13.95;5.93;;;;;;;15.59;40.84;101403.31;5114757;27;20014;-87
2024/04/23 07:18:00;;;;;;;12.07;4.90;;;;;;;16.90;40.59;101394.50;5065050;27;20017;-84
2024/04/23 07:20:28;;;;;;;9.90;5.25;;;;;;;17.81;40.30;101399.28;5114840;27;20010;-86
2024/04/23 07:22:54;;;;;;;6.30;4.40;;;;;;;17.66;37.92;101397.91;5110587;27;20010;-85
2024/04/23 07:25:22;;;;;;;11.70;5.57;;;;;;;17.18;38.88;101391.19;5087683;27;20079;-86
2024/04/23 07:27:48;;;;;;;9.20;5.60;;;;;;;17.44;39.13;101389.66;5137506;27;20014;-86
2024/04/23 07:30:21;;;;;;;8.85;5.10;;;;;;;17.90;38.21;101392.84;5107890;27;20034;-85
2024/04/23 07:32:46;;;;;;;7.63;6.50;;;;;;;18.06;37.05;101390.69;5083539;27;20014;-86
2024/04/23 07:35:15;;;;;;;8.40;6.72;;;;;;;17.92;36.63;101377.78;5110474;27;20450;-86
2024/04/23 07:37:41;;;;;;;7.25;5.22;;;;;;;18.50;36.77;101386.72;5109915;27;20017;-85
2024/04/23 07:40:10;;;;;;;8.00;5.03;;;;;;;19.30;36.09;101383.31;5108419;27;20010;-87
2024/04/23 07:42:36;;;;;;;7.72;5.20;;;;;;;18.94;34.86;101377.44;5062631;28;20018;-88
2024/04/23 07:45:06;;;;;;;10.88;5.50;;;;;;;18.79;35.08;101378.78;5093623;27;20009;-87
2024/04/23 07:47:38;;;;;;;11.95;5.72;;;;;;;17.05;36.58;101381.81;5121553;27;20568;-86
2024/04/23 07:50:07;;;;;;;9.05;5.97;;;;;;;15.26;38.68;101381.00;5101314;28;20094;-87
2024/04/23 07:52:37;;;;;;;8.95;5.70;;;;;;;17.10;37.06;101375.50;5104929;28;20005;-89
2024/04/23 07:55:12;;;;;;;7.90;4.45;;;;;;;16.38;37.42;101378.88;5144437;27;20078;-88
2024/04/23 07:57:55;;;;;;;167.02;45.95;;;;;;;16.95;36.23;101370.59;5097063;27;20002;-88
2024/04/23 08:00:24;;;;;;;208.88;56.75;;;;;;;17.82;36.17;101366.56;5109487;27;20001;-90
2024/04/23 08:03:03;;;;;;;14.40;7.15;;;;;;;18.85;34.62;101365.31;5118817;27;20015;-89
2024/04/23 08:05:35;;;;;;;5.80;5.20;;;;;;;16.97;36.14;101363.50;5127337;27;20013;-88
2024/04/23 08:08:06;;;;;;;9.45;6.00;;;;;;;15.50;37.52;101367.38;5144678;27;20008;-86
2024/04/23 08:10:32;;;;;;;6.65;5.47;;;;;;;16.25;38.24;101363.34;5107146;27;20067;-89
2024/04/23 08:13:00;;;;;;;6.13;5.30;;;;;;;16.99;35.90;101356.41;5151991;27;20069;-90
2024/04/23 08:15:41;;;;;;;6.93;4.78;;;;;;;18.23;34.66;101350.47;5137374;27;20012;-88
2024/04/23 08:18:16;;;;;;;6.75;4.47;;;;;;;18.94;34.50;101348.25;5150701;27;20009;-88
2024/04/23 08:20:42;;;;;;;6.15;4.88;;;;;;;19.85;32.71;101349.59;5158135;27;20012;-89
2024/04/23 08:23:11;;;;;;;5.85;4.90;;;;;;;19.50;33.43;101339.28;5148778;27;20020;-89
2024/04/23 08:25:41;;;;;;;8.30;5.43;;;;;;;18.34;34.17;101338.63;5157665;27;20005;-90
2024/04/23 08:28:11;;;;;;;16.85;7.05;;;;;;;18.56;33.17;101334.44;5181925;27;20021;-89
2024/04/23 08:30:37;;;;;;;43.05;12.95;;;;;;;16.43;34.76;101336.50;5126374;27;20009;-90
2024/04/23 08:33:07;;;;;;;34.20;10.38;;;;;;;14.17;38.67;101339.50;5129943;27;20009;-89
2024/04/23 08:35:33;;;;;;;17.08;6.22;;;;;;;12.86;41.42;101339.91;5179693;27;20013;-89
2024/04/23 08:38:01;;;;;;;6.25;3.67;;;;;;;12.52;42.54;101334.03;5121925;27;20050;-90
2024/04/23 08:40:28;;;;;;;5.57;4.60;;;;;;;11.65;43.44;101326.47;5132323;27;20016;-89
2024/04/23 08:43:09;;;;;;;12.93;5.82;;;;;;;11.14;44.83;101328.31;5103416;27;20045;-88
2024/04/23 08:45:40;;;;;;;8.90;4.55;;;;;;;11.67;44.36;101334.38;5153550;27;20024;-89
2024/04/23 08:48:13;;;;;;;8.50;4.15;;;;;;;14.41;38.27;101316.38;5156620;27;20016;-88
2024/04/23 08:50:40;;;;;;;4.72;4.25;;;;;;;16.54;35.91;101315.09;5159651;27;20008;-87
2024/04/23 08:53:36;;;;;;;6.63;3.90;;;;;;;15.88;34.92;101315.66;5110304;27;20027;-87
2024/04/23 09:04:53;;;;;;;7.93;5.13;;;;;;;10.59;44.90;101309.94;5209802;27;20015;-85
2024/04/23 09:08:28;;;;;;;5.53;4.78;;;;;;;9.86;47.57;101310.56;5224342;27;20047;-89
2024/04/23 09:24:13;;;;;;;5.28;4.00;;;;;;;15.84;37.08;101274.38;5262967;22;20035;-90
2024/04/23 09:29:20;;;;;;;4.13;3.33;;;;;;;16.00;34.53;101274.91;5243295;22;20047;-86
2024/04/23 09:31:48;;;;;;;;;;;;;;;14.26;36.17;101272.69;5188319;27;20052;-86
2024/04/23 09:34:29;;;;;;;6.40;3.03;;;;;;;14.15;37.35;101272.84;5205516;27;20486;-89
2024/04/23 09:37:15;;;;;;;5.90;3.58;;;;;;;13.40;38.47;101271.13;5189638;27;20025;-88
2024/04/23 09:39:43;;;;;;;6.35;4.40;;;;;;;12.61;39.70;101267.44;5204416;27;20000;-90
2024/04/23 09:42:20;;;;;;;5.57;4.93;;;;;;;11.88;40.96;101266.06;5251488;22;20051;-88
2024/04/23 09:44:58;;;;;;;10.15;6.20;;;;;;;11.32;42.14;101261.91;5177478;27;20021;-89
2024/04/23 09:47:27;;;;;;;6.00;4.43;;;;;;;11.08;41.04;101266.28;5165213;27;20019;-86
2024/04/23 09:50:04;;;;;;;6.22;4.32;;;;;;;10.55;42.24;101262.84;5181753;27;20056;-89
2024/04/23 09:52:31;;;;;;;6.20;4.38;;;;;;;10.50;42.65;101264.56;5183395;27;20012;-89
2024/04/23 09:55:08;;;;;;;15.00;7.43;;;;;;;10.39;42.18;101262.81;5180030;27;20022;-87
2024/04/23 09:57:34;;;;;;;6.43;5.22;;;;;;;10.57;41.90;101258.44;5191602;27;20018;-87
2024/04/23 10:00:11;;;;;;;3.08;2.78;;;;;;;10.98;39.44;101252.34;5179451;27;20011;-87
2024/04/23 10:02:44;;;;;;;4.05;2.97;;;;;;;10.79;40.39;101243.63;5194394;27;20349;-87
2024/04/23 10:05:28;;;;;;;3.95;3.65;;;;;;;10.33;40.56;101244.44;5186980;27;20004;-90
2024/04/23 10:08:11;;;;;;;3.50;3.20;;;;;;;9.98;41.47;101240.00;5210007;27;20008;-88
2024/04/23 10:10:54;;;;;;;4.10;3.30;;;;;;;9.90;42.90;101237.34;5175235;27;20011;-91
2024/04/23 10:13:26;;;;;;;4.70;3.53;;;;;;;9.94;43.01;101233.00;5179233;27;20020;-89
2024/04/23 10:16:01;;;;;;;4.72;3.65;;;;;;;9.98;43.49;101231.28;5154405;27;20122;-90
2024/04/23 10:19:02;;;;;;;3.33;2.97;;;;;;;10.20;43.01;101233.06;5168154;27;20015;-88
2024/04/23 10:21:36;;;;;;;5.82;4.22;;;;;;;10.02;43.28;101228.66;5161385;27;20406;-91
2024/04/23 10:24:11;;;;;;;6.53;4.38;;;;;;;10.05;43.24;101219.97;5158179;27;20043;-89
2024/04/23 10:26:48;;;;;;;6.18;3.95;;;;;;;9.99;43.42;101214.75;5185156;27;20015;-89
2024/04/23 10:29:16;;;;;;;5.55;4.15;;;;;;;9.88;44.00;101218.19;5202033;27;20026;-90
2024/04/23 10:31:42;;;;;;;4.38;3.10;;;;;;;9.90;43.73;101219.06;5141853;27;20919;-87
2024/04/23 10:34:16;;;;;;;5.60;4.10;;;;;;;9.74;44.23;101217.28;5175403;27;20020;-89
2024/04/23 10:36:47;;;;;;;4.88;3.38;;;;;;;9.63;43.57;101211.13;5171164;27;20020;-88
2024/04/23 10:39:25;;;;;;;7.45;3.55;;;;;;;9.51;43.64;101215.41;5202420;27;20140;-93
2024/04/23 10:41:56;;;;;;;5.40;3.15;;;;;;;9.48;43.33;101202.34;5178130;27;20023;-89
2024/04/23 10:44:27;;;;;;;5.95;3.70;;;;;;;9.63;42.93;101198.91;5200478;27;20011;-92
2024/04/23 10:46:53;;;;;;;7.18;3.33;;;;;;;12.08;39.73;101186.41;5197595;27;20013;-89
2024/04/23 10:49:28;;;;;;;2.95;2.55;;;;;;;14.62;35.65;101171.13;5205788;27;21218;-89
2024/04/23 10:51:56;;;;;;;3.50;3.20;;;;;;;15.88;33.44;101174.88;5209049;27;20067;-90
2024/04/23 10:54:31;;;;;;;3.17;2.53;;;;;;;16.74;31.49;101168.34;5182415;27;20079;-88
2024/04/23 10:57:07;;;;;;;4.88;3.15;;;;;;;14.27;34.19;101166.47;5184158;27;20009;-85
2024/04/23 10:59:48;;;;;;;3.10;2.90;;;;;;;12.68;36.25;101182.44;5237796;27;20008;-90
2024/04/23 11:02:27;;;;;;;3.47;3.17;;;;;;;11.42;38.47;101174.50;5206941;27;20035;-89
2024/04/23 11:04:58;;;;;;;5.22;3.38;;;;;;;10.89;39.55;101174.66;5209264;27;20035;-89
2024/04/23 11:07:30;;;;;;;3.63;3.17;;;;;;;10.56;39.45;101173.81;5190873;27;20083;-88
2024/04/23 11:10:01;;;;;;;4.57;2.60;;;;;;;10.15;38.92;101161.56;5174684;27;20354;-88
2024/04/23 11:12:38;;;;;;;3.85;3.35;;;;;;;10.15;39.18;101166.78;5178520;27;20007;-88
2024/04/23 11:15:22;;;;;;;3.70;2.80;;;;;;;10.26;37.25;101156.34;5187720;27;20012;-89
2024/04/23 11:18:06;;;;;;;3.33;2.80;;;;;;;10.53;37.45;101158.13;5211424;27;20008;-88
2024/04/23 11:20:52;;;;;;;3.22;2.55;;;;;;;10.92;36.87;101147.56;5215832;27;20044;-86
2024/04/23 11:23:24;;;;;;;2.70;2.50;;;;;;;11.79;34.02;101145.47;5208728;27;20029;-88
2024/04/23 11:25:52;;;;;;;5.63;2.47;;;;;;;11.99;33.69;101142.72;5198493;27;20018;-89
2024/04/23 11:28:21;;;;;;;3.60;2.88;;;;;;;11.97;34.55;101143.63;5227545;27;20012;-89
2024/04/23 11:31:00;;;;;;;3.35;3.10;;;;;;;11.71;35.67;101144.66;5210285;27;20012;-93
2024/04/23 11:33:29;;;;;;;3.38;3.08;;;;;;;11.59;36.86;101141.19;5205373;27;20024;-89
2024/04/23 11:36:05;;;;;;;6.18;3.60;;;;;;;10.78;39.51;101134.53;5190718;27;20016;-88
2024/04/23 11:38:48;;;;;;;5.95;4.35;;;;;;;10.58;40.92;101140.63;5209101;27;20055;-90
2024/04/23 11:41:18;;;;;;;4.68;3.13;;;;;;;10.79;40.61;101138.00;5211003;27;20079;-87
2024/04/23 11:43:46;;;;;;;4.57;3.97;;;;;;;10.92;40.66;101137.09;5203400;27;20019;-90
2024/04/23 11:46:14;;;;;;;4.18;3.75;;;;;;;10.93;40.80;101130.97;5183257;27;20023;-87
2024/04/23 11:48:43;;;;;;;5.15;3.90;;;;;;;10.86;41.61;101135.38;5203821;27;20016;-88
2024/04/23 11:51:19;;;;;;;10.93;5.40;;;;;;;11.03;42.06;101131.81;5192760;27;20007;-88
2024/04/23 11:54:05;;;;;;;10.43;5.05;;;;;;;10.94;42.18;101132.72;5213916;27;20060;-89
2024/04/23 11:56:31;;;;;;;12.55;4.30;;;;;;;10.78;42.93;101126.66;5206065;27;20016;-89
2024/04/23 11:59:09;;;;;;;4.93;4.18;;;;;;;10.58;43.18;101119.69;5236322;27;20000;-87
2024/04/23 12:02:05;;;;;;;5.05;4.53;;;;;;;10.32;43.91;101119.69;5236360;27;20026;-86
2024/04/23 12:04:38;;;;;;;8.63;3.60;;;;;;;10.52;44.33;101110.97;5202088;27;20537;-89
2024/04/23 12:07:10;;;;;;;5.45;3.70;;;;;;;10.26;43.91;101106.63;5186551;27;20015;-87
2024/04/23 12:10:04;;;;;;;5.63;3.80;;;;;;;9.75;44.98;101111.81;5183663;27;20020;-87
2024/04/23 12:13:06;;;;;;;6.88;3.83;;;;;;;9.97;44.61;101099.63;5216787;27;20016;-87
2024/04/23 12:19:49;;;;;;;;;;;;;;;;;;;;;
2024/04/23 12:22:20;;;;;;;17.10;7.95;;;;;;;11.35;42.83;101073.16;5235548;27;20008;-89